createdAt,value
2022-11-06T00:01:07.580Z,5.00
2022-11-06T00:03:36.022Z,7.25
2022-11-06T00:06:25.179Z,5.00
2022-11-06T00:08:53.738Z,5.45
2022-11-06T00:11:23.747Z,5.20
2022-11-06T00:13:52.669Z,4.22
2022-11-06T00:16:21.859Z,5.00
2022-11-06T00:18:51.273Z,8.55
2022-11-06T00:21:22.325Z,5.90
2022-11-06T00:23:51.600Z,4.13
2022-11-06T00:26:24.348Z,5.68
2022-11-06T00:28:53.587Z,5.25
2022-11-06T00:31:23.398Z,5.07
2022-11-06T00:33:52.713Z,6.07
2022-11-06T00:36:22.906Z,4.55
2022-11-06T00:38:53.183Z,4.70
2022-11-06T00:41:22.021Z,6.28
2022-11-06T00:43:53.597Z,7.30
2022-11-06T00:46:22.062Z,7.82
2022-11-06T00:48:51.353Z,7.78
2022-11-06T00:51:24.379Z,5.45
2022-11-06T00:53:56.625Z,6.10
2022-11-06T00:56:25.455Z,7.28
2022-11-06T00:58:55.850Z,5.75
2022-11-06T01:01:25.941Z,7.88
2022-11-06T01:03:56.910Z,5.30
2022-11-06T01:06:27.145Z,7.80
2022-11-06T01:08:55.730Z,7.82
2022-11-06T01:11:27.455Z,6.20
2022-11-06T01:13:59.428Z,6.85
2022-11-06T01:16:29.144Z,5.07
2022-11-06T01:18:58.910Z,6.82
2022-11-06T01:21:29.125Z,4.22
2022-11-06T01:23:59.789Z,5.85
2022-11-06T01:26:38.261Z,4.53
2022-11-06T01:29:13.278Z,5.78
2022-11-06T01:31:41.952Z,6.90
2022-11-06T01:34:11.782Z,6.85
2022-11-06T01:36:40.873Z,5.55
2022-11-06T01:39:12.523Z,9.57
2022-11-06T01:41:43.642Z,7.07
2022-11-06T01:44:49.188Z,8.85
2022-11-06T01:47:25.065Z,5.90
2022-11-06T01:49:57.187Z,5.97
2022-11-06T01:52:26.966Z,8.00
2022-11-06T01:55:01.029Z,6.63
2022-11-06T01:57:29.575Z,7.35
2022-11-06T01:59:58.089Z,7.07
2022-11-06T02:02:28.149Z,7.50
2022-11-06T02:04:56.665Z,8.30
2022-11-06T02:07:25.337Z,5.22
2022-11-06T02:09:53.825Z,6.00
2022-11-06T02:12:35.583Z,8.52
2022-11-06T02:15:12.190Z,6.82
2022-11-06T02:17:58.601Z,7.30
2022-11-06T02:20:33.737Z,7.10
2022-11-06T02:23:23.905Z,7.43
2022-11-06T02:26:03.093Z,8.55
2022-11-06T02:28:36.729Z,7.57
2022-11-06T02:31:09.719Z,7.10
2022-11-06T02:33:44.788Z,7.82
2022-11-06T02:36:18.139Z,8.23
2022-11-06T02:38:51.649Z,6.30
2022-11-06T02:41:24.321Z,6.60
2022-11-06T02:43:57.190Z,5.82
2022-11-06T02:46:29.745Z,5.67
2022-11-06T02:49:04.497Z,7.60
2022-11-06T02:51:37.485Z,6.57
2022-11-06T02:54:08.187Z,10.05
2022-11-06T02:56:39.736Z,7.68
2022-11-06T02:59:13.858Z,6.63
2022-11-06T03:01:48.245Z,7.10
2022-11-06T03:04:20.765Z,8.50
2022-11-06T03:06:55.102Z,6.75
2022-11-06T03:09:29.625Z,6.63
2022-11-06T03:12:04.288Z,6.15
2022-11-06T03:14:40.765Z,7.45
2022-11-06T03:17:17.843Z,9.30
2022-11-06T03:19:52.254Z,6.35
2022-11-06T03:22:28.323Z,10.50
2022-11-06T03:25:01.227Z,6.10
2022-11-06T03:27:36.933Z,6.45
2022-11-06T03:30:15.239Z,6.97
2022-11-06T03:32:50.850Z,6.78
2022-11-06T03:35:24.662Z,7.82
2022-11-06T03:37:59.621Z,5.93
2022-11-06T03:40:31.733Z,6.40
2022-11-06T03:43:05.130Z,5.70
2022-11-06T03:45:36.321Z,5.35
2022-11-06T03:48:11.890Z,5.43
2022-11-06T03:50:48.253Z,7.22
2022-11-06T03:53:22.399Z,7.65
2022-11-06T03:55:55.233Z,5.15
2022-11-06T03:58:26.381Z,6.90
2022-11-06T04:00:58.462Z,5.93
2022-11-06T04:03:31.578Z,5.95
2022-11-06T04:06:07.796Z,8.25
2022-11-06T04:08:55.291Z,9.50
2022-11-06T04:11:44.603Z,8.55
2022-11-06T04:14:17.055Z,7.55
2022-11-06T04:16:51.925Z,8.60
2022-11-06T04:19:22.985Z,7.68
2022-11-06T04:22:11.100Z,7.65
2022-11-06T04:25:07.395Z,6.57
2022-11-06T04:27:49.150Z,6.45
2022-11-06T04:30:19.298Z,8.63
2022-11-06T04:33:04.972Z,7.20
2022-11-06T04:35:44.182Z,7.75
2022-11-06T04:38:20.777Z,6.35
2022-11-06T04:40:55.641Z,7.18
2022-11-06T04:43:31.552Z,6.50
2022-11-06T04:46:03.821Z,8.13
2022-11-06T04:48:34.161Z,4.97
2022-11-06T04:51:07.072Z,8.30
2022-11-06T04:53:36.882Z,7.25
2022-11-06T04:56:10.886Z,8.48
2022-11-06T04:58:39.982Z,7.32
2022-11-06T05:01:08.430Z,7.25
2022-11-06T05:03:38.509Z,7.95
2022-11-06T05:06:07.373Z,8.77
2022-11-06T05:08:35.902Z,6.38
2022-11-06T05:11:04.298Z,6.13
2022-11-06T05:13:33.330Z,8.48
2022-11-06T05:16:02.318Z,7.47
2022-11-06T05:18:30.681Z,6.95
2022-11-06T05:21:25.533Z,6.57
2022-11-06T05:23:53.951Z,5.50
2022-11-06T05:26:22.412Z,5.50
2022-11-06T05:28:50.841Z,7.75
2022-11-06T05:31:19.125Z,6.20
2022-11-06T05:33:47.485Z,5.20
2022-11-06T05:36:17.445Z,7.18
2022-11-06T05:38:46.412Z,6.65
2022-11-06T05:41:14.831Z,6.82
2022-11-06T05:43:43.562Z,4.68
2022-11-06T05:46:35.688Z,6.25
2022-11-06T05:49:00.372Z,5.10
2022-11-06T05:51:30.123Z,6.40
2022-11-06T05:53:58.529Z,5.25
2022-11-06T05:56:26.977Z,8.35
2022-11-06T05:58:55.705Z,7.30
2022-11-06T06:01:24.152Z,5.63
2022-11-06T06:03:52.566Z,5.40
2022-11-06T06:06:22.448Z,6.25
2022-11-06T06:08:52.363Z,6.25
2022-11-06T06:11:22.113Z,5.97
2022-11-06T06:13:50.552Z,4.13
2022-11-06T06:16:18.878Z,7.35
2022-11-06T06:18:50.292Z,6.93
2022-11-06T06:21:18.898Z,5.38
2022-11-06T06:23:47.529Z,4.97
2022-11-06T06:26:17.356Z,6.32
2022-11-06T06:28:45.738Z,6.53
2022-11-06T06:31:14.073Z,5.95
2022-11-06T06:33:42.493Z,5.75
2022-11-06T06:36:11.502Z,4.90
2022-11-06T06:38:39.861Z,4.18
2022-11-06T06:41:10.412Z,4.53
2022-11-06T06:43:40.275Z,4.72
2022-11-06T06:46:09.009Z,5.78
2022-11-06T06:48:37.681Z,4.95
2022-11-06T06:51:08.049Z,5.15
2022-11-06T06:53:37.279Z,6.18
2022-11-06T06:56:06.348Z,4.97
2022-11-06T06:58:35.033Z,4.78
2022-11-06T07:01:10.859Z,6.97
2022-11-06T07:03:40.008Z,6.07
2022-11-06T07:06:09.128Z,7.22
2022-11-06T07:08:37.853Z,7.18
2022-11-06T07:11:09.082Z,8.27
2022-11-06T07:13:37.472Z,4.43
2022-11-06T07:16:09.499Z,9.30
2022-11-06T07:18:40.533Z,5.65
2022-11-06T07:21:10.405Z,6.22
2022-11-06T07:23:39.538Z,7.07
2022-11-06T07:26:08.058Z,7.30
2022-11-06T07:28:36.854Z,6.68
2022-11-06T07:31:08.742Z,6.18
2022-11-06T07:33:37.601Z,6.78
2022-11-06T07:36:07.868Z,5.90
2022-11-06T07:38:37.270Z,6.82
2022-11-06T07:41:07.466Z,13.15
2022-11-06T07:43:37.133Z,6.72
2022-11-06T07:46:09.726Z,6.28
2022-11-06T07:48:39.659Z,6.88
2022-11-06T07:51:10.201Z,5.72
2022-11-06T07:53:39.035Z,10.30
2022-11-06T07:56:09.007Z,10.20
2022-11-06T07:58:37.461Z,6.68
2022-11-06T08:01:08.146Z,6.78
2022-11-06T08:03:36.589Z,5.90
2022-11-06T08:06:06.261Z,7.00
2022-11-06T08:08:35.801Z,6.20
2022-11-06T08:11:04.982Z,5.82
2022-11-06T08:13:35.229Z,4.50
2022-11-06T08:16:10.981Z,6.38
2022-11-06T08:18:39.962Z,6.28
2022-11-06T08:21:09.369Z,4.28
2022-11-06T08:23:38.716Z,4.82
2022-11-06T08:26:08.025Z,5.20
2022-11-06T08:28:36.718Z,5.07
2022-11-06T08:31:07.738Z,4.07
2022-11-06T08:33:37.231Z,3.33
2022-11-06T08:36:06.986Z,4.32
2022-11-06T08:38:35.629Z,4.82
2022-11-06T08:41:06.612Z,4.75
2022-11-06T08:43:35.309Z,4.95
2022-11-06T08:46:04.656Z,4.40
2022-11-06T08:48:36.348Z,6.78
2022-11-06T08:51:06.442Z,4.35
2022-11-06T08:53:35.646Z,5.72
2022-11-06T08:56:05.385Z,5.30
2022-11-06T08:58:33.848Z,2.78
2022-11-06T09:01:02.372Z,3.13
2022-11-06T09:03:30.781Z,5.82
2022-11-06T09:06:00.753Z,5.70
2022-11-06T09:08:29.357Z,3.85
2022-11-06T09:10:59.015Z,5.20
2022-11-06T09:13:27.650Z,4.32
2022-11-06T09:15:56.047Z,3.95
2022-11-06T09:18:25.105Z,3.80
2022-11-06T09:20:56.365Z,4.25
2022-11-06T09:23:26.524Z,4.35
2022-11-06T09:25:55.334Z,4.00
2022-11-06T09:28:23.645Z,3.63
2022-11-06T09:30:52.273Z,3.75
2022-11-06T09:33:21.062Z,4.22
2022-11-06T09:35:49.633Z,6.57
2022-11-06T09:38:19.172Z,6.38
2022-11-06T09:40:53.357Z,3.85
2022-11-06T09:44:02.911Z,5.00
2022-11-06T09:46:25.263Z,5.47
2022-11-06T09:48:59.844Z,6.10
2022-11-06T09:51:37.809Z,5.40
2022-11-06T09:54:13.540Z,3.90
2022-11-06T09:56:47.025Z,6.35
2022-11-06T09:59:18.888Z,6.45
2022-11-06T10:01:51.153Z,4.95
2022-11-06T10:04:31.130Z,5.82
2022-11-06T10:07:00.240Z,4.72
2022-11-06T10:09:29.463Z,6.10
2022-11-06T10:12:10.109Z,4.65
2022-11-06T10:14:53.130Z,6.20
2022-11-06T10:17:40.525Z,4.70
2022-11-06T10:20:23.668Z,3.95
2022-11-06T10:23:05.689Z,3.83
2022-11-06T10:25:56.102Z,7.40
2022-11-06T10:28:43.085Z,4.53
2022-11-06T10:31:20.541Z,5.60
2022-11-06T10:33:57.305Z,5.75
2022-11-06T10:36:31.669Z,6.28
2022-11-06T10:39:01.627Z,4.25
2022-11-06T10:41:35.373Z,6.45
2022-11-06T10:46:38.541Z,8.98
2022-11-06T10:49:15.213Z,6.15
2022-11-06T10:52:10.212Z,6.07
2022-11-06T10:54:53.210Z,4.47
2022-11-06T10:57:30.284Z,5.60
2022-11-06T11:00:00.760Z,8.27
2022-11-06T11:02:33.105Z,3.78
2022-11-06T11:05:01.582Z,4.50
2022-11-06T11:07:33.917Z,4.22
2022-11-06T11:10:26.989Z,3.53
2022-11-06T11:12:57.198Z,5.05
2022-11-06T11:15:28.737Z,4.22
2022-11-06T11:18:17.586Z,5.95
2022-11-06T11:20:47.926Z,7.10
2022-11-06T11:23:19.212Z,5.07
2022-11-06T11:25:49.956Z,6.75
2022-11-06T11:28:29.321Z,6.05
2022-11-06T11:31:07.694Z,4.03
2022-11-06T11:33:36.888Z,4.97
2022-11-06T11:36:11.799Z,5.78
2022-11-06T11:38:42.253Z,6.68
2022-11-06T11:41:15.111Z,4.25
2022-11-06T11:43:44.237Z,6.37
2022-11-06T11:46:23.238Z,4.95
2022-11-06T11:48:53.170Z,4.63
2022-11-06T11:51:32.242Z,4.75
2022-11-06T11:54:06.193Z,4.78
2022-11-06T11:57:04.237Z,5.00
2022-11-06T11:59:27.309Z,5.10
2022-11-06T12:02:00.748Z,4.95
2022-11-06T12:04:33.311Z,5.03
2022-11-06T12:07:03.838Z,8.00
2022-11-06T12:09:36.210Z,5.22
2022-11-06T12:12:04.637Z,3.97
2022-11-06T12:14:36.078Z,7.35
2022-11-06T12:17:22.426Z,5.18
2022-11-06T12:19:54.778Z,6.70
2022-11-06T12:22:29.101Z,5.72
2022-11-06T12:25:04.222Z,4.00
2022-11-06T12:27:37.985Z,5.88
2022-11-06T12:32:48.973Z,3.78
2022-11-06T12:35:26.781Z,5.32
2022-11-06T12:38:04.408Z,4.10
2022-11-06T12:40:37.098Z,5.22
2022-11-06T12:43:15.180Z,4.22
2022-11-06T12:46:18.266Z,3.85
2022-11-06T12:49:12.807Z,5.40
2022-11-06T12:51:53.434Z,5.22
2022-11-06T12:54:39.776Z,4.60
2022-11-06T12:57:15.509Z,5.55
2022-11-06T12:59:56.485Z,4.28
2022-11-06T13:02:39.403Z,5.75
2022-11-06T13:05:16.651Z,6.90
2022-11-06T13:08:10.056Z,5.25
2022-11-06T13:11:05.840Z,5.50
2022-11-06T13:13:49.033Z,7.30
2022-11-06T13:16:27.893Z,4.83
2022-11-06T13:19:05.748Z,6.80
2022-11-06T13:21:58.472Z,6.63
2022-11-06T13:24:33.378Z,5.53
2022-11-06T13:27:13.263Z,4.88
2022-11-06T13:29:42.986Z,4.50
2022-11-06T13:32:17.563Z,5.43
2022-11-06T13:34:52.078Z,6.00
2022-11-06T13:37:38.606Z,4.60
2022-11-06T13:40:20.487Z,4.63
2022-11-06T13:42:54.400Z,4.68
2022-11-06T13:45:24.353Z,5.95
2022-11-06T13:48:24.668Z,6.65
2022-11-06T13:50:59.158Z,5.72
2022-11-06T13:53:42.540Z,6.07
2022-11-06T13:56:23.862Z,5.28
2022-11-06T13:59:32.898Z,6.28
2022-11-06T14:02:20.545Z,5.50
2022-11-06T14:05:15.338Z,4.78
2022-11-06T14:07:44.527Z,5.55
2022-11-06T14:10:22.449Z,4.78
2022-11-06T14:12:51.864Z,5.65
2022-11-06T14:15:29.885Z,6.50
2022-11-06T14:18:00.147Z,4.80
2022-11-06T14:20:32.733Z,5.45
2022-11-06T14:23:30.584Z,4.38
2022-11-06T14:26:03.175Z,5.68
2022-11-06T14:28:34.169Z,5.70
2022-11-06T14:31:12.095Z,5.90
2022-11-06T14:34:03.905Z,6.72
2022-11-06T14:36:37.996Z,5.78
2022-11-06T14:39:12.845Z,6.40
2022-11-06T14:41:58.093Z,7.32
2022-11-06T14:44:34.983Z,8.43
2022-11-06T14:47:07.199Z,5.70
2022-11-06T14:49:42.287Z,5.90
2022-11-06T14:52:14.052Z,7.25
2022-11-06T14:54:52.189Z,7.78
2022-11-06T14:57:39.638Z,6.30
2022-11-06T15:00:09.845Z,6.85
2022-11-06T15:02:38.825Z,7.95
2022-11-06T15:05:14.310Z,7.55
2022-11-06T15:08:05.982Z,8.32
2022-11-06T15:10:55.424Z,6.90
2022-11-06T15:13:34.896Z,9.63
2022-11-06T15:16:11.507Z,6.75
2022-11-06T15:18:42.817Z,7.22
2022-11-06T15:21:19.936Z,6.90
2022-11-06T15:23:57.326Z,7.40
2022-11-06T15:26:28.548Z,7.53
2022-11-06T15:29:13.958Z,8.57
2022-11-06T15:31:45.592Z,6.90
2022-11-06T15:34:20.839Z,7.13
2022-11-06T15:36:55.157Z,7.65
2022-11-06T15:39:25.369Z,7.38
2022-11-06T15:41:53.744Z,7.22
2022-11-06T15:44:25.995Z,8.90
2022-11-06T15:46:55.871Z,8.52
2022-11-06T15:49:24.390Z,7.53
2022-11-06T15:51:55.710Z,8.25
2022-11-06T15:54:38.931Z,7.03
2022-11-06T15:57:16.274Z,8.25
2022-11-06T15:59:46.486Z,7.97
2022-11-06T16:02:18.636Z,10.13
2022-11-06T16:04:47.970Z,10.27
2022-11-06T16:07:19.022Z,10.00
2022-11-06T16:09:48.745Z,10.00
2022-11-06T16:12:19.653Z,7.95
2022-11-06T16:14:49.474Z,9.35
2022-11-06T16:17:20.219Z,8.38
2022-11-06T16:19:50.344Z,9.02
2022-11-06T16:22:20.686Z,14.15
2022-11-06T16:24:53.181Z,8.13
2022-11-06T16:27:23.854Z,8.98
2022-11-06T16:29:56.906Z,8.10
2022-11-06T16:32:28.167Z,8.85
2022-11-06T16:34:56.667Z,8.90
2022-11-06T16:37:40.382Z,9.52
2022-11-06T16:40:46.319Z,9.38
2022-11-06T16:43:16.655Z,8.18
2022-11-06T16:45:56.840Z,9.02
2022-11-06T16:48:45.943Z,9.60
2022-11-06T16:51:16.558Z,10.38
2022-11-06T16:53:54.107Z,10.93
2022-11-06T16:56:28.772Z,9.25
2022-11-06T16:59:02.681Z,9.57
2022-11-06T17:01:39.252Z,8.88
2022-11-06T17:04:08.132Z,10.50
2022-11-06T17:06:38.336Z,9.35
2022-11-06T17:09:25.385Z,8.52
2022-11-06T17:11:54.217Z,9.90
2022-11-06T17:14:23.169Z,8.98
2022-11-06T17:16:54.650Z,9.80
2022-11-06T17:19:23.392Z,8.30
2022-11-06T17:21:52.517Z,8.85
2022-11-06T17:24:37.852Z,9.00
2022-11-06T17:27:07.054Z,9.02
2022-11-06T17:29:36.704Z,8.90
2022-11-06T17:32:06.999Z,12.38
2022-11-06T17:34:35.792Z,9.32
2022-11-06T17:37:05.282Z,9.82
2022-11-06T17:39:34.770Z,8.48
2022-11-06T17:42:04.452Z,8.77
2022-11-06T17:44:36.177Z,8.70
2022-11-06T17:47:05.662Z,9.57
2022-11-06T17:49:36.368Z,9.07
2022-11-06T17:52:05.944Z,9.30
2022-11-06T17:54:37.633Z,11.68
2022-11-06T17:57:08.613Z,10.35
2022-11-06T17:59:38.015Z,8.88
2022-11-06T18:02:07.839Z,10.40
2022-11-06T18:04:39.573Z,8.88
2022-11-06T18:07:08.101Z,10.80
2022-11-06T18:09:36.952Z,10.80
2022-11-06T18:12:09.866Z,9.50
2022-11-06T18:14:38.361Z,10.43
2022-11-06T18:17:06.910Z,9.20
2022-11-06T18:19:35.354Z,11.45
2022-11-06T18:22:06.891Z,10.38
2022-11-06T18:24:37.588Z,9.10
2022-11-06T18:27:05.985Z,9.70
2022-11-06T18:29:34.406Z,9.20
2022-11-06T18:32:02.823Z,8.93
2022-11-06T18:34:31.265Z,10.25
2022-11-06T18:36:59.793Z,8.90
2022-11-06T18:39:29.855Z,11.05
2022-11-06T18:42:00.208Z,11.75
2022-11-06T18:44:29.166Z,9.18
2022-11-06T18:46:57.575Z,10.20
2022-11-06T18:49:26.081Z,9.85
2022-11-06T18:51:54.428Z,10.13
2022-11-06T18:54:22.863Z,10.60
2022-11-06T18:56:52.928Z,10.43
2022-11-06T18:59:21.382Z,10.43
2022-11-06T19:01:49.894Z,11.40
2022-11-06T19:04:18.744Z,11.20
2022-11-06T19:06:47.623Z,13.00
2022-11-06T19:09:17.229Z,12.00
2022-11-06T19:11:49.468Z,12.73
2022-11-06T19:14:21.091Z,12.63
2022-11-06T19:16:50.972Z,13.38
2022-11-06T19:19:25.308Z,12.63
2022-11-06T19:21:54.541Z,12.27
2022-11-06T19:24:23.435Z,13.50
2022-11-06T19:26:53.132Z,14.38
2022-11-06T19:29:25.026Z,13.57
2022-11-06T19:31:56.979Z,11.77
2022-11-06T19:34:28.192Z,13.05
2022-11-06T19:36:58.838Z,13.20
2022-11-06T19:39:28.520Z,12.20
2022-11-06T19:42:00.242Z,13.48
2022-11-06T19:44:32.103Z,15.05
2022-11-06T19:47:05.641Z,12.65
2022-11-06T19:49:35.942Z,12.77
2022-11-06T19:52:43.799Z,13.02
2022-11-06T19:57:51.047Z,12.75
2022-11-06T20:00:24.225Z,12.02
2022-11-06T20:02:53.962Z,11.90
2022-11-06T20:05:25.441Z,12.20
2022-11-06T20:07:54.026Z,12.57
2022-11-06T20:10:23.669Z,12.13
2022-11-06T20:12:53.105Z,12.95
2022-11-06T20:15:25.094Z,13.02
2022-11-06T20:17:54.959Z,11.02
2022-11-06T20:20:25.065Z,11.95
2022-11-06T20:22:54.857Z,14.02
2022-11-06T20:25:24.385Z,12.05
2022-11-06T20:27:54.248Z,12.70
2022-11-06T20:30:25.753Z,11.38
2022-11-06T20:32:56.031Z,12.38
2022-11-06T20:35:25.660Z,12.00
2022-11-06T20:37:55.418Z,11.85
2022-11-06T20:40:28.084Z,12.20
2022-11-06T20:43:01.262Z,12.80
2022-11-06T20:45:37.747Z,12.02
2022-11-06T20:48:08.453Z,12.10
2022-11-06T20:50:38.269Z,11.57
2022-11-06T20:53:07.776Z,12.82
2022-11-06T20:55:37.856Z,12.80
2022-11-06T20:58:08.146Z,13.18
2022-11-06T21:00:39.481Z,13.65
2022-11-06T21:03:11.430Z,11.45
2022-11-06T21:05:41.529Z,12.13
2022-11-06T21:08:11.670Z,12.38
2022-11-06T21:10:41.621Z,12.45
2022-11-06T21:13:10.871Z,13.02
2022-11-06T21:15:41.083Z,11.45
2022-11-06T21:18:09.500Z,12.90
2022-11-06T21:20:39.307Z,12.82
2022-11-06T21:23:09.110Z,12.48
2022-11-06T21:25:44.956Z,14.27
2022-11-06T21:28:14.152Z,14.27
2022-11-06T21:30:44.940Z,13.07
2022-11-06T21:33:14.050Z,12.85
2022-11-06T21:35:43.001Z,13.30
2022-11-06T21:38:11.403Z,12.10
2022-11-06T21:40:40.970Z,13.45
2022-11-06T21:43:09.521Z,13.85
2022-11-06T21:45:37.989Z,14.07
2022-11-06T21:48:14.745Z,12.10
2022-11-06T21:50:54.258Z,13.20
2022-11-06T21:53:39.738Z,12.73
2022-11-06T21:56:10.462Z,13.02
2022-11-06T21:58:38.838Z,11.43
2022-11-06T22:01:08.272Z,12.07
2022-11-06T22:03:38.210Z,11.63
2022-11-06T22:06:08.405Z,11.73
2022-11-06T22:08:38.321Z,12.07
2022-11-06T22:11:17.420Z,12.60
2022-11-06T22:13:46.752Z,13.85
2022-11-06T22:16:18.905Z,12.70
2022-11-06T22:18:48.691Z,11.85
2022-11-06T22:21:18.743Z,13.27
2022-11-06T22:23:47.264Z,13.15
2022-11-06T22:26:19.282Z,11.30
2022-11-06T22:28:47.973Z,11.90
2022-11-06T22:31:16.908Z,12.27
2022-11-06T22:33:52.182Z,13.05
2022-11-06T22:36:24.607Z,13.20
2022-11-06T22:38:54.316Z,11.73
2022-11-06T22:41:25.323Z,12.65
2022-11-06T22:43:58.505Z,12.88
2022-11-06T22:46:27.757Z,11.88
2022-11-06T22:48:56.812Z,10.48
2022-11-06T22:51:30.044Z,12.32
2022-11-06T22:53:59.369Z,11.23
2022-11-06T22:56:29.407Z,12.98
2022-11-06T22:58:59.566Z,11.43
2022-11-06T23:01:30.605Z,12.23
2022-11-06T23:04:02.146Z,13.48
2022-11-06T23:06:33.121Z,10.60
2022-11-06T23:09:01.615Z,10.30
2022-11-06T23:11:30.833Z,10.80
2022-11-06T23:14:06.012Z,13.07
2022-11-06T23:16:53.874Z,11.73
2022-11-06T23:19:22.212Z,11.63
2022-11-06T23:21:52.689Z,12.43
2022-11-06T23:24:21.018Z,11.80
2022-11-06T23:26:49.363Z,13.93
2022-11-06T23:29:17.733Z,11.90
2022-11-06T23:31:46.058Z,12.32
2022-11-06T23:34:14.398Z,11.65
2022-11-06T23:36:42.741Z,12.30
2022-11-06T23:39:12.654Z,10.75
2022-11-06T23:41:46.950Z,11.35
2022-11-06T23:44:35.878Z,12.27
2022-11-06T23:47:04.306Z,10.77
2022-11-06T23:49:32.898Z,10.38
2022-11-06T23:52:01.960Z,10.63
2022-11-06T23:54:32.242Z,11.55
2022-11-06T23:57:00.659Z,11.20
2022-11-06T23:59:29.277Z,12.00
